Basinger, Florida
Current Conditions -  °F | °C
As of 8:53 AM on Monday 20 Oct 2014 (Local Time) from KVRB Reporting Station
Clear Clear  
Wind Chill: 71°   Ceiling: Unl
Heat Index: 71°   Visibility: 10mi
Dew Point: 66°   Wind: 3mph
Humidity: 84%   Direction: 330°NNW
Pressure: 30.06"   Gusts: NA
Location:  27.4513°N, 80.9004°W
Report Text: KVRB 201253Z 33003KT 10SM CLR 22/19 A3006 RMK AO2 SLP176 T02170189
Loading
Personal Weather Stations






























Interactive Weather Map
Tropical Storm Tracking
New forecast layout! Learn more

10-Day Weather Forecast

Advertisements
Track Severe Weather on mobile